Time,TemperatureF,DewpointF,PressureIn,WindDirection,WindDirectionDegrees,WindSpeedMPH,WindSpeedGustMPH,Humidity,HourlyPrecipIn,Conditions,Clouds,dailyrainin,SoftwareType,DateUTC
2013-10-07 00:44:00,67.0,-99.9,29.99,ESE,104,-999.0,-999.0,-999,0.00,,,-99.99,,2013-10-07 04:44:00,
2013-10-07 00:52:00,66.0,-99.9,29.98,North,10,-999.0,-999.0,-999,-99.99,,,-99.99,,2013-10-07 04:52:00,
2013-10-07 01:44:00,66.0,-99.9,29.98,North,10,-999.0,-999.0,-999,-99.99,,,-99.99,,2013-10-07 05:44:00,
2013-10-07 01:52:00,66.0,-99.9,29.98,SW,215,-999.0,7.0,-999,0.00,,,-99.99,,2013-10-07 05:52:00,
2013-10-07 02:42:00,66.0,-99.9,29.98,SW,215,-999.0,7.0,-999,0.00,,,-99.99,,2013-10-07 06:42:00,
2013-10-07 02:52:00,67.0,-99.9,29.96,SSE,166,-999.0,-999.0,-999,0.00,,,-99.99,,2013-10-07 06:52:00,
2013-10-07 03:42:00,67.0,-99.9,29.96,SSE,166,-999.0,-999.0,-999,0.00,,,-99.99,,2013-10-07 07:42:00,
2013-10-07 03:52:00,67.0,-99.9,29.93,West,273,5.0,6.0,-999,0.00,,,-99.99,,2013-10-07 07:52:00,
2013-10-07 04:42:00,67.0,-99.9,29.93,West,273,5.0,6.0,-999,0.00,,,-99.99,,2013-10-07 08:42:00,
2013-10-07 04:52:00,68.0,-99.9,29.93,NW,323,-999.0,10.0,-999,0.00,,,-99.99,,2013-10-07 08:52:00,
2013-10-07 05:43:00,68.0,-99.9,29.93,NW,323,-999.0,10.0,-999,0.00,,,-99.99,,2013-10-07 09:43:00,
2013-10-07 05:52:00,68.0,-99.9,29.91,South,183,-999.0,10.0,-999,0.00,,,-99.99,,2013-10-07 09:52:00,
2013-10-07 06:43:00,68.0,-99.9,29.91,South,183,-999.0,10.0,-999,0.00,,,-99.99,,2013-10-07 10:43:00,
2013-10-07 06:52:00,68.0,-99.9,29.91,WSW,253,7.0,12.0,-999,0.00,,,-99.99,,2013-10-07 10:52:00,
2013-10-07 07:42:00,68.0,-99.9,29.91,WSW,253,7.0,12.0,-999,0.00,,,-99.99,,2013-10-07 11:42:00,
2013-10-07 07:52:00,68.0,-99.9,29.88,ESE,116,-999.0,9.0,-999,0.00,,,-99.99,,2013-10-07 11:52:00,
2013-10-07 08:43:00,68.0,-99.9,29.88,ESE,116,-999.0,9.0,-999,0.00,,,-99.99,,2013-10-07 12:43:00,
2013-10-07 08:52:00,69.0,-99.9,29.87,WSW,258,10.0,10.0,-999,0.00,,,-99.99,,2013-10-07 12:52:00,
2013-10-07 09:42:00,69.0,-99.9,29.87,WSW,258,10.0,10.0,-999,0.00,,,-99.99,,2013-10-07 13:42:00,
2013-10-07 09:52:00,69.0,-99.9,29.85,West,279,5.0,10.0,-999,0.00,,,-99.99,,2013-10-07 13:52:00,
2013-10-07 10:43:00,69.0,-99.9,29.85,West,279,5.0,10.0,-999,0.00,,,-99.99,,2013-10-07 14:43:00,
2013-10-07 10:52:00,69.0,-99.9,29.82,SSW,198,-999.0,7.0,-999,0.06,,,-99.99,,2013-10-07 14:52:00,
2013-10-07 11:43:00,69.0,-99.9,29.82,SSW,198,-999.0,7.0,-999,0.06,,,-99.99,,2013-10-07 15:43:00,
2013-10-07 11:52:00,70.0,-99.9,29.78,SE,143,3.0,16.0,-999,0.00,,,-99.99,,2013-10-07 15:52:00,
2013-10-07 12:43:00,70.0,-99.9,29.78,SE,143,3.0,16.0,-999,0.00,,,-99.99,,2013-10-07 16:43:00,
2013-10-07 12:52:00,73.0,-99.9,29.74,SW,233,12.0,23.0,-999,0.00,,,-99.99,,2013-10-07 16:52:00,
2013-10-07 13:43:00,73.0,-99.9,29.74,SW,233,12.0,23.0,-999,0.00,,,-99.99,,2013-10-07 17:43:00,
2013-10-07 13:52:00,71.0,-99.9,29.73,SW,222,-999.0,20.0,-999,0.14,,,-99.99,,2013-10-07 17:52:00,
2013-10-07 14:42:00,71.0,-99.9,29.73,SW,222,-999.0,20.0,-999,0.14,,,-99.99,,2013-10-07 18:42:00,
2013-10-07 14:52:00,66.0,-99.9,29.78,SSW,209,-999.0,3.0,-999,0.28,,,-99.99,,2013-10-07 18:52:00,
2013-10-07 15:42:00,66.0,-99.9,29.78,SSW,209,-999.0,3.0,-999,0.28,,,-99.99,,2013-10-07 19:42:00,
2013-10-07 15:52:00,62.0,-99.9,29.82,South,183,-999.0,-999.0,-999,0.07,,,-99.99,,2013-10-07 19:52:00,
2013-10-07 16:43:00,62.0,-99.9,29.82,South,183,-999.0,-999.0,-999,0.07,,,-99.99,,2013-10-07 20:43:00,
2013-10-07 16:52:00,58.0,-99.9,29.87,SSW,196,-999.0,-999.0,-999,0.03,,,-99.99,,2013-10-07 20:52:00,
2013-10-07 17:43:00,58.0,-99.9,29.87,SSW,196,-999.0,-999.0,-999,0.03,,,-99.99,,2013-10-07 21:43:00,
2013-10-07 17:52:00,58.0,-99.9,29.90,SSW,196,-999.0,-999.0,-999,0.01,,,-99.99,,2013-10-07 21:52:00,
2013-10-07 18:43:00,58.0,-99.9,29.90,SSW,196,-999.0,-999.0,-999,0.01,,,-99.99,,2013-10-07 22:43:00,
2013-10-07 18:52:00,57.0,-99.9,29.92,SSW,196,-999.0,-999.0,-999,0.00,,,-99.99,,2013-10-07 22:52:00,
2013-10-07 19:42:00,57.0,-99.9,29.92,SSW,196,-999.0,-999.0,-999,0.00,,,-99.99,,2013-10-07 23:42:00,
2013-10-07 19:52:00,56.0,-99.9,29.93,SSW,196,-999.0,-999.0,-999,0.00,,,-99.99,,2013-10-07 23:52:00,
2013-10-07 20:42:00,56.0,-99.9,29.93,SSW,196,-999.0,-999.0,-999,0.00,,,-99.99,,2013-10-08 00:42:00,
2013-10-07 21:42:00,56.0,-99.9,29.95,SSW,196,-999.0,-999.0,-999,0.00,,,-99.99,,2013-10-08 01:42:00,
2013-10-07 21:52:00,56.0,-99.9,29.95,SSW,196,-999.0,-999.0,-999,0.00,,,-99.99,,2013-10-08 01:52:00,
2013-10-07 22:52:00,51.0,-99.9,29.98,SE,140,-999.0,-999.0,-999,0.00,,,-99.99,,2013-10-08 02:52:00,
2013-10-07 23:44:00,51.0,-99.9,29.98,SE,140,-999.0,-999.0,-999,0.00,,,-99.99,,2013-10-08 03:44:00,
2013-10-07 23:52:00,50.0,-99.9,30.00,SE,140,-999.0,-999.0,-999,0.00,,,-99.99,,2013-10-08 03:52:00,